| time (UTC) | temp C | wind direction | speed KPH | gust KPH | rain 1hr cm | rain 24hr cm | rain mn cm | humidity % | barometer mb |
| 20260505140520 | 8 | 312 | 12.9 | 20.9 | 0.00 | 0.03 | 0.00 | 51 | 1008.6 |
| 20260505124519 | 7 | 306 | 8.0 | 12.9 | 0.00 | 0.03 | 0.00 | 57 | 1008.7 |
| 20260505123522 | 7 | 290 | 8.0 | 17.7 | 0.00 | 0.03 | 0.00 | 58 | 1008.7 |
| 20260505122523 | 7 | 268 | 11.3 | 17.7 | 0.00 | 0.03 | 0.00 | 57 | 1008.5 |
| 20260505121519 | 6 | 280 | 6.4 | 9.7 | 0.00 | 0.03 | 0.00 | 61 | 1008.2 |
| 20260505120518 | 6 | 287 | 4.8 | 9.7 | 0.00 | 0.03 | 0.00 | 58 | 1008.1 |
| 20260505115519 | 6 | 301 | 6.4 | 14.5 | 0.00 | 0.03 | 0.00 | 59 | 1007.7 |
| 20260505114519 | 5 | 277 | 6.4 | 11.3 | 0.00 | 0.03 | 0.00 | 61 | 1007.2 |
| 20260505113521 | 4 | 273 | 6.4 | 8.0 | 0.00 | 0.03 | 0.00 | 65 | 1007.0 |
| 20260505112522 | 3 | 326 | 1.6 | 3.2 | 0.00 | 0.03 | 0.00 | 70 | 1006.5 |
| 20260505111523 | 3 | 285 | 0.0 | 1.6 | 0.00 | 0.03 | 0.00 | 69 | 1006.6 |
| 20260505110523 | 3 | 279 | 0.0 | 1.6 | 0.00 | 0.03 | 0.00 | 69 | 1006.5 |
| 20260505101526 | 4 | 251 | 4.8 | 8.0 | 0.00 | 0.03 | 0.00 | 67 | 1006.4 |
| 20260505100524 | 5 | 302 | 1.6 | 3.2 | 0.00 | 0.03 | 0.00 | 66 | 1006.3 |
| 20260505095546 | 5 | 238 | 0.0 | 3.2 | 0.00 | 0.03 | 0.00 | 64 | 1006.2 |
| 20260505094544 | 6 | 356 | 1.6 | 3.2 | 0.00 | 0.03 | 0.00 | 60 | 1006.1 |
| 20260505093606 | 6 | 253 | 1.6 | 3.2 | 0.00 | 0.03 | 0.00 | 59 | 1006.2 |
| 20260505092547 | 6 | 255 | 1.6 | 3.2 | 0.00 | 0.03 | 0.00 | 57 | 1006.2 |
| 20260505091525 | 6 | 254 | 1.6 | 3.2 | 0.00 | 0.03 | 0.00 | 57 | 1006.1 |
| 20260505090524 | 6 | 295 | 1.6 | 3.2 | 0.00 | 0.03 | 0.00 | 57 | 1006.2 |
| 20260505085526 | 7 | 304 | 1.6 | 3.2 | 0.00 | 0.03 | 0.00 | 57 | 1006.0 |
| 20260505084526 | 7 | 313 | 1.6 | 4.8 | 0.00 | 0.03 | 0.00 | 57 | 1005.7 |
| 20260505083526 | 7 | 307 | 1.6 | 4.8 | 0.00 | 0.03 | 0.00 | 55 | 1005.7 |
| 20260505082524 | 7 | 337 | 4.8 | 12.9 | 0.00 | 0.03 | 0.00 | 54 | 1005.4 |
| 20260505081546 | 7 | 5 | 4.8 | 8.0 | 0.00 | 0.03 | 0.00 | 54 | 1005.1 |
| 20260505080523 | 7 | 3 | 3.2 | 16.1 | 0.00 | 0.03 | 0.00 | 53 | 1004.9 |
| 20260505075525 | 8 | 5 | 9.7 | 16.1 | 0.00 | 0.03 | 0.00 | 52 | 1004.6 |
| 20260505074525 | 8 | 14 | 4.8 | 14.5 | 0.00 | 0.03 | 0.00 | 50 | 1004.3 |
| 20260505073524 | 8 | 349 | 8.0 | 14.5 | 0.00 | 0.03 | 0.00 | 49 | 1004.4 |
| 20260505072520 | 8 | 351 | 9.7 | 17.7 | 0.00 | 0.03 | 0.00 | 48 | 1004.3 |
| 20260505071523 | 8 | 352 | 11.3 | 24.1 | 0.00 | 0.03 | 0.00 | 49 | 1004.4 |
| 20260505070520 | 8 | 9 | 12.9 | 20.9 | 0.00 | 0.03 | 0.00 | 50 | 1004.2 |
| 20260505065519 | 9 | 7 | 11.3 | 22.5 | 0.00 | 0.03 | 0.00 | 51 | 1004.0 |
| 20260505064541 | 9 | 4 | 8.0 | 16.1 | 0.00 | 0.03 | 0.00 | 49 | 1003.9 |
| 20260505063522 | 9 | 334 | 11.3 | 17.7 | 0.00 | 0.03 | 0.00 | 48 | 1003.7 |
| 20260505062522 | 10 | 339 | 11.3 | 17.7 | 0.00 | 0.03 | 0.00 | 48 | 1003.6 |
| 20260505061520 | 10 | 338 | 12.9 | 22.5 | 0.00 | 0.03 | 0.00 | 47 | 1003.7 |
| 20260505060520 | 10 | 342 | 11.3 | 19.3 | 0.00 | 0.03 | 0.00 | 47 | 1003.6 |
| 20260505055521 | 10 | 341 | 12.9 | 27.4 | 0.00 | 0.03 | 0.00 | 48 | 1003.7 |
| 20260505054521 | 10 | 338 | 14.5 | 20.9 | 0.00 | 0.03 | 0.00 | 49 | 1003.5 |
| 20260505053603 | 10 | 347 | 9.7 | 17.7 | 0.00 | 0.03 | 0.00 | 50 | 1003.4 |
| 20260505052520 | 11 | 340 | 11.3 | 19.3 | 0.00 | 0.03 | 0.00 | 49 | 1003.2 |
| 20260505051523 | 11 | 354 | 9.7 | 19.3 | 0.00 | 0.03 | 0.00 | 49 | 1003.1 |
| 20260505050525 | 11 | 349 | 16.1 | 24.1 | 0.00 | 0.03 | 0.00 | 49 | 1002.9 |
| 20260505041519 | 12 | 309 | 9.7 | 16.1 | 0.00 | 0.03 | 0.03 | 48 | 1001.9 |
| 20260505040522 | 12 | 306 | 9.7 | 19.3 | 0.00 | 0.03 | 0.03 | 47 | 1001.9 |
| 20260505035524 | 12 | 302 | 9.7 | 16.1 | 0.00 | 0.03 | 0.03 | 47 | 1001.8 |
| 20260505034521 | 12 | 306 | 8.0 | 14.5 | 0.00 | 0.03 | 0.03 | 48 | 1001.8 |
| 20260505033522 | 12 | 305 | 8.0 | 17.7 | 0.00 | 0.03 | 0.03 | 47 | 1001.4 |
| 20260505032539 | 12 | 293 | 6.4 | 11.3 | 0.00 | 0.03 | 0.03 | 47 | 1001.5 |
| 20260505031519 | 12 | 300 | 4.8 | 8.0 | 0.00 | 0.03 | 0.03 | 46 | 1001.3 |
| 20260505030520 | 13 | 294 | 4.8 | 11.3 | 0.00 | 0.03 | 0.03 | 44 | 1001.1 |
| 20260505025521 | 13 | 296 | 6.4 | 9.7 | 0.00 | 0.03 | 0.03 | 42 | 1001.0 |
| 20260505024521 | 13 | 296 | 6.4 | 14.5 | 0.00 | 0.03 | 0.03 | 41 | 1000.7 |
| 20260505023540 | 14 | 300 | 8.0 | 14.5 | 0.00 | 0.03 | 0.03 | 41 | 1000.3 |
| 20260505022521 | 15 | 298 | 6.4 | 12.9 | 0.00 | 0.03 | 0.03 | 40 | 1000.0 |
| 20260505021542 | 15 | 313 | 9.7 | 14.5 | 0.00 | 0.03 | 0.03 | 39 | 999.6 |
| 20260505020520 | 16 | 314 | 11.3 | 17.7 | 0.00 | 0.03 | 0.03 | 37 | 999.0 |
| 20260505015521 | 16 | 310 | 12.9 | 24.1 | 0.00 | 0.03 | 0.03 | 38 | 999.3 |
| 20260505014519 | 15 | 311 | 11.3 | 19.3 | 0.00 | 0.03 | 0.03 | 41 | 999.3 |
| 20260505013522 | 15 | 300 | 6.4 | 14.5 | 0.00 | 0.03 | 0.03 | 42 | 999.2 |
| 20260505012544 | 16 | 299 | 6.4 | 12.9 | 0.00 | 0.03 | 0.03 | 42 | 999.1 |
| 20260505011523 | 17 | 299 | 9.7 | 17.7 | 0.00 | 0.03 | 0.03 | 39 | 998.9 |
| 20260505010519 | 17 | 310 | 11.3 | 19.3 | 0.00 | 0.03 | 0.03 | 37 | 998.6 |
| 20260505005519 | 17 | 312 | 11.3 | 20.9 | 0.00 | 0.03 | 0.03 | 37 | 998.3 |
| 20260505004519 | 18 | 318 | 14.5 | 25.7 | 0.00 | 0.03 | 0.03 | 36 | 998.0 |
| 20260505003540 | 18 | 325 | 11.3 | 19.3 | 0.00 | 0.03 | 0.03 | 36 | 997.9 |
| 20260505002522 | 19 | 314 | 14.5 | 20.9 | 0.00 | 0.03 | 0.03 | 35 | 997.8 |
| 20260505001540 | 20 | 316 | 14.5 | 27.4 | 0.00 | 0.03 | 0.03 | 36 | 997.5 |
| 20260505000519 | 20 | 317 | 12.9 | 20.9 | 0.00 | 0.03 | 0.03 | 37 | 997.4 |
| 20260504235520 | 21 | 306 | 14.5 | 24.1 | 0.00 | 0.03 | 0.03 | 37 | 997.2 |
| 20260504234520 | 21 | 313 | 12.9 | 22.5 | 0.00 | 0.03 | 0.03 | 37 | 996.9 |
| 20260504233520 | 22 | 309 | 14.5 | 22.5 | 0.00 | 0.03 | 0.03 | 38 | 996.9 |
| 20260504232520 | 22 | 304 | 14.5 | 25.7 | 0.00 | 0.03 | 0.03 | 39 | 996.8 |
| 20260504231521 | 22 | 317 | 14.5 | 22.5 | 0.00 | 0.03 | 0.03 | 39 | 996.7 |
| 20260504230522 | 22 | 314 | 19.3 | 32.2 | 0.00 | 0.03 | 0.03 | 38 | 996.6 |
| 20260504225521 | 22 | 322 | 12.9 | 20.9 | 0.00 | 0.03 | 0.03 | 39 | 996.6 |
| 20260504224544 | 23 | 317 | 14.5 | 22.5 | 0.00 | 0.03 | 0.03 | 39 | 996.6 |
| 20260504223520 | 24 | 307 | 14.5 | 33.8 | 0.00 | 0.03 | 0.03 | 38 | 996.3 |
| 20260504222519 | 24 | 299 | 14.5 | 30.6 | 0.00 | 0.03 | 0.03 | 38 | 996.1 |
| 20260504221518 | 24 | 294 | 12.9 | 22.5 | 0.00 | 0.03 | 0.03 | 39 | 996.0 |
| 20260504220519 | 25 | 277 | 22.5 | 40.2 | 0.00 | 0.03 | 0.03 | 35 | 995.8 |
| 20260504215524 | 24 | 285 | 14.5 | 32.2 | 0.03 | 0.03 | 0.03 | 37 | 995.7 |
| 20260504214521 | 24 | 272 | 16.1 | 25.7 | 0.03 | 0.03 | 0.03 | 37 | 995.7 |
| 20260504213623 | 24 | 273 | 12.9 | 24.1 | 0.03 | 0.03 | 0.03 | 37 | 995.7 |
| 20260504212519 | 24 | 278 | 14.5 | 29.0 | 0.03 | 0.03 | 0.03 | 37 | 995.8 |
| 20260504211520 | 23 | 277 | 9.7 | 17.7 | 0.03 | 0.03 | 0.03 | 41 | 995.9 |
| 20260504210522 | 23 | 281 | 11.3 | 19.3 | 0.03 | 0.03 | 0.03 | 44 | 996.0 |
| 20260504205519 | 23 | 277 | 17.7 | 29.0 | 0.00 | 0.00 | 0.00 | 36 | 996.1 |
| 20260504204520 | 23 | 276 | 16.1 | 25.7 | 0.00 | 0.00 | 0.00 | 36 | 996.1 |
| 20260504203522 | 24 | 269 | 16.1 | 32.2 | 0.00 | 0.00 | 0.00 | 35 | 996.3 |
| 20260504202521 | 24 | 271 | 17.7 | 25.7 | 0.00 | 0.00 | 0.00 | 37 | 996.3 |
| 20260504201543 | 24 | 280 | 17.7 | 30.6 | 0.00 | 0.00 | 0.00 | 37 | 996.4 |
| 20260504200521 | 24 | 276 | 17.7 | 35.4 | 0.00 | 0.00 | 0.00 | 37 | 996.5 |
| 20260504195542 | 24 | 274 | 17.7 | 30.6 | 0.00 | 0.00 | 0.00 | 38 | 996.6 |
| 20260504194520 | 23 | 277 | 16.1 | 30.6 | 0.00 | 0.00 | 0.00 | 40 | 996.7 |
| 20260504193518 | 23 | 272 | 14.5 | 33.8 | 0.00 | 0.00 | 0.00 | 40 | 996.8 |
| 20260504192521 | 23 | 273 | 19.3 | 33.8 | 0.00 | 0.00 | 0.00 | 39 | 996.9 |
| 20260504191521 | 23 | 276 | 19.3 | 37.0 | 0.00 | 0.00 | 0.00 | 39 | 997.0 |
| 20260504190521 | 23 | 276 | 16.1 | 29.0 | 0.00 | 0.00 | 0.00 | 39 | 997.0 |
| 20260504185545 | 23 | 269 | 17.7 | 33.8 | 0.00 | 0.00 | 0.00 | 38 | 997.1 |
| 20260504183519 | 23 | 276 | 19.3 | 35.4 | 0.00 | 0.00 | 0.00 | 38 | 997.3 |
| 20260504182520 | 23 | 270 | 22.5 | 37.0 | 0.00 | 0.00 | 0.00 | 37 | 997.3 |
| 20260504181519 | 23 | 271 | 17.7 | 33.8 | 0.00 | 0.00 | 0.00 | 37 | 997.3 |
| 20260504180524 | 23 | 271 | 17.7 | 35.4 | 0.00 | 0.00 | 0.00 | 37 | 997.4 |
| 20260504175520 | 23 | 271 | 24.1 | 41.8 | 0.00 | 0.00 | 0.00 | 36 | 997.3 |
| 20260504174602 | 23 | 272 | 16.1 | 30.6 | 0.00 | 0.00 | 0.00 | 37 | 997.3 |
| 20260504173540 | 23 | 271 | 16.1 | 33.8 | 0.00 | 0.00 | 0.00 | 36 | 997.4 |
| 20260504172521 | 23 | 270 | 17.7 | 35.4 | 0.00 | 0.00 | 0.00 | 36 | 997.4 |
| 20260504171520 | 23 | 267 | 17.7 | 29.0 | 0.00 | 0.00 | 0.00 | 35 | 997.5 |
| 20260504170520 | 22 | 270 | 17.7 | 29.0 | 0.00 | 0.00 | 0.00 | 36 | 997.6 |
| 20260504150519 | 20 | 267 | 16.1 | 25.7 | 0.00 | 0.00 | 0.00 | 40 | 999.3 |